Time;durP1;ratioP1;P1;durP2;ratioP2;P2;SDS_P1;SDS_P2;PMS_P1;PMS_P2;Temp;Humidity;BMP_temperature;BMP_pressure;BME280_temperature;BME280_humidity;BME280_pressure;Samples;Min_cycle;Max_cycle;Signal;HPM_P1;HPM_P2
2020/12/30 00:00:36;;;;;;;23.52;15.68;;;4.50;92.20;;;;;;6183098;23;20021;-87
2020/12/30 00:03:35;;;;;;;;;;;;;;;;;;;;;
2020/12/30 00:06:12;;;;;;;23.88;16.25;;;4.50;91.90;;;;;;6185630;23;20499;-86
2020/12/30 00:08:38;;;;;;;21.02;15.13;;;4.40;91.80;;;;;;6160214;23;20044;-86
2020/12/30 00:11:30;;;;;;;26.33;16.00;;;4.40;91.80;;;;;;6185985;23;20305;-88
2020/12/30 00:14:06;;;;;;;;;;;4.40;91.80;;;;;;6184676;23;20008;-86
2020/12/30 00:17:22;;;;;;;24.48;16.50;;;4.40;91.80;;;;;;6184106;23;20207;-86
2020/12/30 00:20:02;;;;;;;;;;;;;;;;;;;;;
2020/12/30 00:22:35;;;;;;;25.65;17.55;;;4.30;91.70;;;;;;6184960;23;20365;-88
2020/12/30 00:25:23;;;;;;;25.50;17.35;;;4.20;91.70;;;;;;6159346;23;20067;-87
2020/12/30 00:28:15;;;;;;;;;;;;;;;;;;;;;
2020/12/30 00:30:43;;;;;;;;;;;4.20;91.70;;;;;;6185153;23;20076;-87
2020/12/30 00:33:16;;;;;;;24.30;17.58;;;4.10;91.70;;;;;;6184324;23;19900;-87
2020/12/30 00:35:44;;;;;;;24.40;17.27;;;4.10;91.70;;;;;;6159195;23;20012;-88
2020/12/30 00:38:30;;;;;;;22.95;16.20;;;4.10;91.70;;;;;;6159725;23;20040;-87
2020/12/30 00:41:22;;;;;;;24.73;18.50;;;4.10;91.70;;;;;;6184534;23;20066;-87
2020/12/30 00:44:11;;;;;;;24.58;17.38;;;4.00;91.60;;;;;;6185069;23;20005;-86
2020/12/30 00:46:37;;;;;;;23.58;16.50;;;4.00;91.70;;;;;;6184641;23;20079;-87
2020/12/30 00:49:37;;;;;;;29.40;18.38;;;4.00;91.90;;;;;;6183969;23;20028;-87
2020/12/30 00:52:08;;;;;;;24.98;18.30;;;4.00;91.60;;;;;;6178596;23;20011;-87
2020/12/30 00:54:48;;;;;;;23.92;16.67;;;3.90;91.60;;;;;;6184272;23;20012;-86
2020/12/30 00:57:19;;;;;;;24.27;17.25;;;3.90;91.60;;;;;;6161157;23;20076;-88
2020/12/30 01:00:04;;;;;;;28.42;18.20;;;3.90;91.60;;;;;;6159205;23;20040;-86
2020/12/30 01:03:01;;;;;;;;;;;;;;;;;;;;;
2020/12/30 01:05:39;;;;;;;27.75;18.33;;;3.80;91.60;;;;;;6184128;23;20084;-88
2020/12/30 01:08:27;;;;;;;26.90;19.55;;;3.80;91.60;;;;;;6184960;23;20009;-87
2020/12/30 01:11:06;;;;;;;26.15;18.65;;;3.70;91.60;;;;;;6158321;23;20009;-87
2020/12/30 01:13:43;;;;;;;27.52;19.75;;;3.70;91.60;;;;;;6161199;23;20008;-90
2020/12/30 01:16:20;;;;;;;24.50;18.25;;;3.60;91.50;;;;;;6182988;23;20005;-86
2020/12/30 01:19:06;;;;;;;;;;;;;;;;;;;;;
2020/12/30 01:21:46;;;;;;;26.77;19.02;;;3.60;91.50;;;;;;6183496;23;20075;-90
2020/12/30 01:24:27;;;;;;;26.90;19.10;;;3.60;91.50;;;;;;6184027;23;20331;-88
2020/12/30 01:27:03;;;;;;;;;;;3.50;91.50;;;;;;6161541;23;20012;-86
2020/12/30 01:29:51;;;;;;;27.42;18.23;;;3.50;91.50;;;;;;6183589;23;19907;-87
2020/12/30 01:32:30;;;;;;;27.67;18.70;;;3.40;91.50;;;;;;6163019;23;20039;-87
2020/12/30 01:35:02;;;;;;;31.20;19.30;;;3.40;91.50;;;;;;6184840;23;20004;-86
2020/12/30 01:37:40;;;;;;;27.20;18.58;;;3.40;91.50;;;;;;6183932;23;20332;-87
2020/12/30 01:40:16;;;;;;;30.27;18.73;;;3.30;91.50;;;;;;6182456;23;20088;-87
2020/12/30 01:42:57;;;;;;;28.50;19.40;;;3.30;91.50;;;;;;6158843;23;20079;-87
2020/12/30 01:45:34;;;;;;;28.08;19.45;;;3.30;91.50;;;;;;6184006;23;20001;-87
2020/12/30 01:48:32;;;;;;;26.85;18.45;;;3.30;91.60;;;;;;6183596;23;20037;-87
2020/12/30 01:51:01;;;;;;;28.73;18.92;;;3.30;91.60;;;;;;6170463;23;20439;-86
2020/12/30 01:53:39;;;;;;;27.33;19.10;;;3.30;91.70;;;;;;6158460;23;20009;-88
2020/12/30 01:56:21;;;;;;;27.77;19.95;;;3.40;91.70;;;;;;6159340;23;20408;-88
2020/12/30 02:02:13;;;;;;;;;;;;;;;;;;;;;
2020/12/30 02:04:56;;;;;;;28.25;18.20;;;3.30;91.70;;;;;;6184187;23;20096;-87
2020/12/30 02:07:30;;;;;;;29.05;18.73;;;3.40;91.80;;;;;;6161881;23;20005;-86
2020/12/30 02:10:03;;;;;;;25.48;17.88;;;3.40;91.80;;;;;;6183218;23;20017;-87
2020/12/30 02:12:48;;;;;;;26.45;18.70;;;3.40;91.80;;;;;;6183470;23;20063;-86
2020/12/30 02:15:36;;;;;;;27.67;19.05;;;3.40;91.90;;;;;;6183237;23;20028;-86
2020/12/30 02:18:30;;;;;;;27.65;18.40;;;3.40;91.80;;;;;;6182942;23;20017;-86
2020/12/30 02:20:58;;;;;;;26.08;17.63;;;3.40;91.80;;;;;;6177697;23;20005;-86
2020/12/30 02:23:37;;;;;;;25.77;18.13;;;3.40;91.90;;;;;;6183884;23;20001;-87
2020/12/30 02:26:15;;;;;;;27.08;18.38;;;3.50;91.90;;;;;;6183576;23;20012;-87
2020/12/30 02:29:08;;;;;;;24.30;17.45;;;3.50;91.90;;;;;;6182474;23;20005;-87
2020/12/30 02:31:48;;;;;;;25.90;17.55;;;3.50;91.90;;;;;;6183324;23;20016;-87
2020/12/30 02:34:33;;;;;;;;;;;;;;;;;;;;;
2020/12/30 02:37:09;;;;;;;28.10;18.67;;;3.50;91.90;;;;;;6183108;23;20104;-88
2020/12/30 02:39:43;;;;;;;27.85;18.67;;;3.50;91.90;;;;;;6181620;23;20039;-87
2020/12/30 02:42:19;;;;;;;;;;;;;;;;;;;;;
2020/12/30 02:44:53;;;;;;;26.80;18.45;;;3.50;91.80;;;;;;6183947;23;20092;-88
2020/12/30 02:47:36;;;;;;;25.80;17.60;;;3.50;91.90;;;;;;6183440;23;20009;-88
2020/12/30 02:50:08;;;;;;;27.08;18.60;;;3.50;91.90;;;;;;6182612;23;20155;-85
2020/12/30 02:53:01;;;;;;;;;;;3.50;92.10;;;;;;6184945;23;20462;-87
2020/12/30 02:55:32;;;;;;;25.73;17.05;;;3.50;91.90;;;;;;6185230;23;20317;-88
2020/12/30 02:57:58;;;;;;;26.20;18.42;;;3.50;91.90;;;;;;6183705;23;20024;-89
2020/12/30 03:03:14;;;;;;;24.75;18.52;;;3.50;91.90;;;;;;6187202;23;20359;-86
2020/12/30 03:05:44;;;;;;;26.08;17.10;;;3.60;91.80;;;;;;6184626;23;20049;-89
2020/12/30 03:08:15;;;;;;;26.92;18.30;;;3.50;91.80;;;;;;6183769;23;20070;-88
2020/12/30 03:10:54;;;;;;;26.38;17.88;;;3.50;91.80;;;;;;6184634;23;20009;-88
2020/12/30 03:13:30;;;;;;;25.95;17.20;;;3.50;91.80;;;;;;6162544;23;20012;-87
2020/12/30 03:16:09;;;;;;;;;;;;;;;;;;;;;
2020/12/30 03:18:45;;;;;;;25.52;17.13;;;3.50;91.90;;;;;;6186335;23;20084;-87
2020/12/30 03:21:24;;;;;;;27.20;17.73;;;3.50;91.90;;;;;;6160584;23;20009;-87
2020/12/30 03:24:13;;;;;;;26.00;17.23;;;3.50;91.90;;;;;;6161954;23;20009;-88
2020/12/30 03:26:47;;;;;;;26.60;17.17;;;3.50;91.90;;;;;;6163090;23;20012;-88
2020/12/30 03:29:18;;;;;;;27.45;17.67;;;3.50;91.90;;;;;;6183986;23;20036;-87
2020/12/30 03:31:54;;;;;;;25.92;17.85;;;3.50;91.90;;;;;;6185113;23;19998;-87
2020/12/30 03:34:37;;;;;;;27.77;17.23;;;3.50;91.90;;;;;;6184616;23;20305;-87
2020/12/30 03:37:33;;;;;;;;;;;;;;;;;;;;;
2020/12/30 03:40:12;;;;;;;23.80;16.38;;;3.50;91.90;;;;;;6185097;23;20096;-87
2020/12/30 03:42:48;;;;;;;25.73;17.95;;;3.50;91.90;;;;;;6184914;23;20011;-87
2020/12/30 03:48:15;;;;;;;26.05;17.45;;;3.50;91.90;;;;;;6184257;23;20071;-87
2020/12/30 03:50:41;;;;;;;24.95;17.35;;;3.50;91.90;;;;;;6162070;23;20016;-86
2020/12/30 03:53:26;;;;;;;;;;;;;;;;;;;;;
2020/12/30 03:56:29;;;;;;;27.65;18.35;;;3.60;92.00;;;;;;6161254;23;20076;-86
2020/12/30 03:59:02;;;;;;;26.90;17.60;;;3.60;92.00;;;;;;6184037;23;20024;-86
2020/12/30 04:01:42;;;;;;;25.15;17.30;;;3.60;92.00;;;;;;6134374;23;20021;-87
2020/12/30 04:04:29;;;;;;;26.58;17.38;;;3.60;92.00;;;;;;6160017;23;20217;-87
2020/12/30 04:06:55;;;;;;;29.70;17.80;;;3.60;92.00;;;;;;6184776;23;20323;-87
2020/12/30 04:09:29;;;;;;;24.63;17.35;;;3.60;92.00;;;;;;6183981;23;20001;-86
2020/12/30 04:12:12;;;;;;;25.67;16.85;;;3.60;92.00;;;;;;6184330;23;19997;-86
2020/12/30 04:14:41;;;;;;;24.50;17.10;;;3.60;92.00;;;;;;6158458;23;20009;-87
2020/12/30 04:17:11;;;;;;;25.27;17.85;;;3.60;92.00;;;;;;6183531;23;20084;-87
2020/12/30 04:19:47;;;;;;;27.07;18.50;;;3.60;92.00;;;;;;6160361;23;20021;-87
2020/12/30 04:22:33;;;;;;;23.67;17.15;;;3.60;92.00;;;;;;6159556;23;20040;-88
2020/12/30 04:25:05;;;;;;;25.83;18.30;;;3.60;92.00;;;;;;6184649;23;20001;-86
2020/12/30 04:27:53;;;;;;;26.33;18.08;;;3.60;92.00;;;;;;6185098;23;20091;-85
2020/12/30 04:30:28;;;;;;;;;;;;;;;;;;;;;
2020/12/30 04:33:06;;;;;;;29.05;17.90;;;3.50;92.20;;;;;;6185840;23;20076;-87
2020/12/30 04:35:58;;;;;;;27.17;18.08;;;3.50;92.00;;;;;;6184979;23;20005;-87
2020/12/30 04:38:31;;;;;;;26.75;18.52;;;3.50;92.00;;;;;;6161182;23;20017;-87
2020/12/30 04:41:07;;;;;;;27.20;19.05;;;3.50;92.30;;;;;;6184521;23;20001;-86
2020/12/30 04:43:52;;;;;;;25.20;17.50;;;3.50;92.10;;;;;;6184199;23;20446;-86
2020/12/30 04:46:42;;;;;;;;;;;;;;;;;;;;;
2020/12/30 04:55:34;;;;;;;25.10;16.90;;;3.50;92.10;;;;;;6169467;23;20327;-86
2020/12/30 04:58:09;;;;;;;23.55;17.10;;;3.50;92.10;;;;;;6163340;23;20390;-86
2020/12/30 05:00:44;;;;;;;22.88;16.52;;;3.50;92.40;;;;;;6183444;23;20055;-86
2020/12/30 05:03:27;;;;;;;;;;;;;;;;;;;;;
2020/12/30 05:06:25;;;;;;;25.65;16.77;;;3.50;92.20;;;;;;6184058;23;20080;-87
2020/12/30 05:09:07;;;;;;;25.85;17.63;;;3.50;92.20;;;;;;6184067;23;20001;-87
2020/12/30 05:11:37;;;;;;;24.05;17.08;;;3.50;92.20;;;;;;6183644;23;20431;-86
2020/12/30 05:14:21;;;;;;;25.10;17.75;;;3.50;92.20;;;;;;6158783;23;20025;-86
2020/12/30 05:16:55;;;;;;;23.15;17.05;;;3.50;92.20;;;;;;6161360;23;20005;-87
2020/12/30 05:20:11;;;;;;;26.77;18.23;;;3.50;92.20;;;;;;6182345;23;20016;-88
2020/12/30 05:22:29;;;;;;;26.17;18.77;;;3.60;92.50;;;;;;6180257;23;20033;-87
2020/12/30 05:25:24;;;;;;;;;;;;;;;;;;;;;
2020/12/30 05:27:52;;;;;;;23.90;16.55;;;3.60;92.30;;;;;;6184754;23;20392;-87
2020/12/30 05:30:28;;;;;;;26.67;17.90;;;3.50;92.30;;;;;;6183145;23;20096;-86
2020/12/30 05:33:24;;;;;;;24.63;17.48;;;3.60;92.30;;;;;;6159262;23;20097;-86
2020/12/30 05:36:13;;;;;;;24.00;17.88;;;3.50;92.30;;;;;;6183866;23;20009;-86
2020/12/30 05:38:41;;;;;;;26.38;17.77;;;3.60;92.40;;;;;;6154471;23;20024;-86
2020/12/30 05:41:35;;;;;;;;;;;;;;;;;;;;;
2020/12/30 05:44:27;;;;;;;30.55;18.38;;;3.60;92.40;;;;;;6185367;23;20102;-86
2020/12/30 05:47:21;;;;;;;27.05;17.75;;;3.60;92.40;;;;;;6180940;23;20005;-87
2020/12/30 05:50:17;;;;;;;27.27;19.20;;;3.60;92.40;;;;;;6185252;23;20415;-87
2020/12/30 05:52:58;;;;;;;;;;;;;;;;;;;;;
2020/12/30 05:55:31;;;;;;;25.85;17.33;;;3.60;92.40;;;;;;6184881;23;20080;-88
2020/12/30 05:58:16;;;;;;;;;;;;;;;;;;;;;
2020/12/30 06:00:54;;;;;;;24.85;16.30;;;3.70;92.50;;;;;;6184787;23;20080;-87
2020/12/30 06:03:48;;;;;;;25.20;18.13;;;3.70;92.50;;;;;;6183182;23;20012;-87
2020/12/30 06:06:27;;;;;;;25.30;18.50;;;3.70;92.50;;;;;;6183756;23;20088;-87
2020/12/30 06:08:58;;;;;;;24.92;18.05;;;3.70;92.50;;;;;;6160634;23;20013;-87
2020/12/30 06:11:32;;;;;;;26.75;17.88;;;3.70;92.50;;;;;;6182478;23;20092;-86
2020/12/30 06:17:03;;;;;;;28.15;18.42;;;3.70;92.50;;;;;;6173064;23;20027;-86
2020/12/30 06:19:43;;;;;;;25.35;17.98;;;3.70;92.50;;;;;;6182854;23;20431;-87
2020/12/30 06:22:27;;;;;;;;;;;;;;;;;;;;;
2020/12/30 06:24:56;;;;;;;24.90;17.90;;;3.70;92.50;;;;;;6184805;23;20495;-87
2020/12/30 06:27:39;;;;;;;;;;;;;;;;;;;;;
2020/12/30 06:30:10;;;;;;;24.08;16.25;;;3.70;92.50;;;;;;6186471;23;20084;-88
2020/12/30 06:32:55;;;;;;;24.13;16.70;;;3.70;92.50;;;;;;6160327;23;20009;-87
2020/12/30 06:35:52;;;;;;;22.63;16.08;;;3.70;92.50;;;;;;6185148;23;20228;-88
2020/12/30 06:38:24;;;;;;;21.35;16.30;;;3.80;92.60;;;;;;6185566;23;20092;-89
2020/12/30 06:41:32;;;;;;;;;;;;;;;;;;;;;
2020/12/30 06:44:17;;;;;;;;;;;;;;;;;;;;;
2020/12/30 06:46:54;;;;;;;22.98;16.50;;;3.80;92.60;;;;;;6184558;23;20076;-87
2020/12/30 06:50:21;;;;;;;;;;;;;;;;;;;;;
2020/12/30 06:53:15;;;;;;;26.63;16.58;;;3.80;92.60;;;;;;6185946;23;20084;-87
2020/12/30 06:56:11;;;;;;;22.20;16.30;;;3.80;92.60;;;;;;6182465;23;20009;-87
2020/12/30 06:59:08;;;;;;;22.67;15.95;;;3.80;92.60;;;;;;6185703;23;20051;-87
2020/12/30 07:02:06;;;;;;;;;;;;;;;;;;;;;
2020/12/30 07:04:44;;;;;;;23.33;16.60;;;3.80;92.60;;;;;;6185524;23;20080;-87
2020/12/30 07:07:51;;;;;;;24.85;17.23;;;3.90;92.60;;;;;;6160408;23;20685;-87
2020/12/30 07:10:55;;;;;;;;;;;;;;;;;;;;;
2020/12/30 07:13:56;;;;;;;23.80;16.00;;;3.90;92.60;;;;;;6180831;23;20084;-86
2020/12/30 07:16:44;;;;;;;23.10;16.60;;;3.90;92.60;;;;;;6141738;23;20013;-87
2020/12/30 07:19:40;;;;;;;23.30;16.80;;;3.90;92.60;;;;;;6183880;23;20016;-87
2020/12/30 07:22:19;;;;;;;22.08;15.35;;;3.80;92.60;;;;;;6158630;23;20063;-86
2020/12/30 07:25:27;;;;;;;21.17;15.95;;;3.90;92.60;;;;;;6184193;23;20001;-86
2020/12/30 07:28:04;;;;;;;24.45;16.85;;;3.90;92.60;;;;;;6185314;23;20324;-87
2020/12/30 07:30:42;;;;;;;24.17;16.17;;;3.90;92.60;;;;;;6184753;23;20067;-88
2020/12/30 07:33:11;;;;;;;23.35;16.02;;;3.90;92.60;;;;;;6184681;23;20101;-86
2020/12/30 07:35:42;;;;;;;24.70;17.17;;;3.90;92.60;;;;;;6183804;23;20005;-86
2020/12/30 07:38:23;;;;;;;21.58;14.90;;;3.90;92.60;;;;;;6184127;23;20008;-86
2020/12/30 07:41:24;;;;;;;22.75;15.15;;;3.90;92.90;;;;;;6184718;23;20067;-87
2020/12/30 07:44:06;;;;;;;22.77;14.90;;;3.90;92.70;;;;;;6165205;23;20005;-87
2020/12/30 07:47:19;;;;;;;23.80;15.07;;;3.90;92.70;;;;;;6184619;23;20008;-87
2020/12/30 07:49:57;;;;;;;;;;;3.90;92.70;;;;;;6184527;23;20048;-86
2020/12/30 07:52:36;;;;;;;22.70;14.95;;;3.90;92.70;;;;;;6184477;23;19900;-87
2020/12/30 07:55:35;;;;;;;;;;;;;;;;;;;;;
2020/12/30 07:58:06;;;;;;;21.95;14.55;;;4.00;92.70;;;;;;6176236;23;20511;-85
2020/12/30 08:00:38;;;;;;;21.92;15.65;;;4.00;92.70;;;;;;6184120;23;20711;-89
2020/12/30 08:07:06;;;;;;;22.10;14.48;;;4.00;92.70;;;;;;6168706;23;20387;-86
2020/12/30 08:10:15;;;;;;;24.10;15.35;;;4.00;92.70;;;;;;6161825;23;20016;-85
2020/12/30 08:12:57;;;;;;;20.92;14.40;;;4.00;92.80;;;;;;6131159;23;20009;-87
2020/12/30 08:15:27;;;;;;;20.27;14.70;;;4.10;92.80;;;;;;6138411;23;20005;-85
2020/12/30 08:18:08;;;;;;;;;;;;;;;;;;;;;
2020/12/30 08:21:11;;;;;;;22.13;15.10;;;4.10;92.80;;;;;;6184334;23;20335;-87
2020/12/30 08:24:12;;;;;;;19.13;13.98;;;4.10;92.80;;;;;;6184137;23;20012;-86
2020/12/30 08:27:06;;;;;;;21.23;14.98;;;4.10;92.80;;;;;;6184128;23;20320;-85
2020/12/30 08:30:18;;;;;;;;;;;;;;;;;;;;;
2020/12/30 08:33:09;;;;;;;19.58;13.38;;;4.20;92.80;;;;;;6184347;23;20080;-87
2020/12/30 08:36:04;;;;;;;;;;;;;;;;;;;;;
2020/12/30 08:38:50;;;;;;;17.52;13.52;;;4.20;93.10;;;;;;6184646;23;20100;-88
2020/12/30 08:41:31;;;;;;;19.15;14.07;;;4.20;92.80;;;;;;6183131;23;20446;-86
2020/12/30 08:44:19;;;;;;;22.85;14.30;;;4.30;92.80;;;;;;6184435;23;20087;-87
2020/12/30 08:46:58;;;;;;;22.02;14.88;;;4.30;92.80;;;;;;6159395;23;20068;-86
2020/12/30 08:49:33;;;;;;;19.95;14.88;;;4.20;92.80;;;;;;6184021;23;20087;-86
2020/12/30 08:52:20;;;;;;;22.38;13.73;;;4.30;92.80;;;;;;6183799;23;20001;-86
2020/12/30 08:57:58;;;;;;;21.60;15.50;;;4.30;92.80;;;;;;6177910;23;20009;-86
2020/12/30 09:00:42;;;;;;;23.33;15.32;;;4.30;92.80;;;;;;6183381;23;20059;-86
2020/12/30 09:03:47;;;;;;;21.45;14.93;;;4.30;92.80;;;;;;6159713;23;20021;-86
2020/12/30 09:06:31;;;;;;;20.73;15.73;;;4.40;92.80;;;;;;6164531;23;20092;-86
2020/12/30 09:09:11;;;;;;;22.00;15.02;;;4.40;92.80;;;;;;6158310;23;20009;-86
2020/12/30 09:12:07;;;;;;;22.85;15.43;;;4.40;92.80;;;;;;6183708;23;20297;-87
2020/12/30 09:14:46;;;;;;;24.73;17.25;;;4.40;92.80;;;;;;6183552;23;20005;-87
2020/12/30 09:17:45;;;;;;;;;;;;;;;;;;;;;
2020/12/30 09:20:51;;;;;;;25.15;17.40;;;4.40;92.90;;;;;;6183324;23;20093;-87
2020/12/30 09:23:24;;;;;;;28.48;18.38;;;4.50;92.90;;;;;;6183034;23;20048;-86
2020/12/30 09:26:04;;;;;;;;;;;;;;;;;;;;;
2020/12/30 09:28:39;;;;;;;24.30;16.65;;;4.50;92.90;;;;;;6185250;23;20076;-86
2020/12/30 09:31:10;;;;;;;24.33;17.92;;;4.50;92.90;;;;;;6182860;23;20008;-84
2020/12/30 09:33:44;;;;;;;26.73;18.65;;;4.50;92.90;;;;;;6157455;23;20013;-86
2020/12/30 09:36:33;;;;;;;23.70;17.33;;;4.50;92.90;;;;;;6136130;23;20005;-86
2020/12/30 09:39:22;;;;;;;24.00;17.58;;;4.60;92.90;;;;;;6140855;23;20027;-87
2020/12/30 09:42:19;;;;;;;;;;;;;;;;;;;;;
2020/12/30 09:45:07;;;;;;;25.35;17.83;;;4.60;92.90;;;;;;6183804;23;20076;-87
2020/12/30 09:48:09;;;;;;;22.23;16.15;;;4.60;92.90;;;;;;6137098;23;20013;-86
2020/12/30 09:51:01;;;;;;;21.50;15.40;;;4.60;92.90;;;;;;6163543;23;20367;-85
2020/12/30 09:54:08;;;;;;;;;;;;;;;;;;;;;
2020/12/30 09:56:42;;;;;;;24.35;16.65;;;4.70;92.90;;;;;;6184198;23;20084;-85
2020/12/30 09:59:23;;;;;;;;;;;;;;;;;;;;;
2020/12/30 10:01:54;;;;;;;28.30;19.63;;;4.70;93.00;;;;;;6181564;23;20093;-86
2020/12/30 10:04:27;;;;;;;26.60;17.60;;;4.70;93.00;;;;;;6182549;23;20081;-86
2020/12/30 10:07:00;;;;;;;21.67;15.68;;;4.80;93.00;;;;;;6158399;23;20343;-85
2020/12/30 10:09:28;;;;;;;22.88;16.50;;;4.80;93.00;;;;;;6182864;23;20029;-86
2020/12/30 10:12:12;;;;;;;26.40;16.58;;;4.80;92.90;;;;;;6158280;23;20401;-86
2020/12/30 10:14:53;;;;;;;;;;;;;;;;;;;;;
2020/12/30 10:17:23;;;;;;;22.80;17.45;;;4.90;93.00;;;;;;6184499;23;20502;-85
2020/12/30 10:20:14;;;;;;;25.30;16.08;;;4.80;92.90;;;;;;6182538;23;20431;-85
2020/12/30 10:23:10;;;;;;;;;;;;;;;;;;;;;
2020/12/30 10:26:11;;;;;;;;;;;;;;;;;;;;;
2020/12/30 10:28:39;;;;;;;24.67;15.90;;;5.00;93.00;;;;;;6183729;23;20080;-87
2020/12/30 10:31:25;;;;;;;24.40;17.00;;;5.00;93.00;;;;;;6157585;23;20009;-86
2020/12/30 10:34:12;;;;;;;23.83;16.67;;;5.00;93.00;;;;;;6182976;23;20013;-86
2020/12/30 10:37:09;;;;;;;21.60;15.95;;;5.00;93.00;;;;;;6160449;23;20435;-86
2020/12/30 10:39:48;;;;;;;20.77;14.90;;;5.00;93.00;;;;;;6181744;23;20085;-86
2020/12/30 10:45:43;;;;;;;20.17;15.35;;;5.10;93.00;;;;;;6172791;23;20017;-86
2020/12/30 10:48:56;;;;;;;;;;;;;;;;;;;;;
2020/12/30 10:51:44;;;;;;;;;;;;;;;;;;;;;
2020/12/30 10:54:20;;;;;;;21.17;15.60;;;5.10;92.90;;;;;;6183857;23;20080;-86
2020/12/30 10:57:26;;;;;;;19.85;15.25;;;5.20;92.90;;;;;;6159495;23;20012;-86
2020/12/30 11:00:12;;;;;;;23.45;15.32;;;5.20;92.90;;;;;;6163199;23;20494;-86
2020/12/30 11:03:27;;;;;;;22.08;15.57;;;5.20;92.90;;;;;;6155916;23;20013;-86
2020/12/30 11:06:13;;;;;;;19.35;15.40;;;5.20;92.90;;;;;;6181844;23;20029;-87
2020/12/30 11:08:54;;;;;;;;;;;;;;;;;;;;;
2020/12/30 11:11:54;;;;;;;22.45;15.65;;;5.20;92.90;;;;;;6183589;23;20092;-88
2020/12/30 11:14:32;;;;;;;19.20;14.65;;;5.20;92.90;;;;;;6183331;23;20371;-89
2020/12/30 11:17:01;;;;;;;21.58;16.52;;;5.30;92.90;;;;;;6184546;23;20352;-86
2020/12/30 11:19:36;;;;;;;;;;;;;;;;;;;;;
2020/12/30 11:22:29;;;;;;;21.73;15.27;;;5.30;92.90;;;;;;6185501;23;20088;-87
2020/12/30 11:25:19;;;;;;;20.67;15.05;;;5.30;92.90;;;;;;6173240;23;20029;-87
2020/12/30 11:27:44;;;;;;;22.00;15.02;;;5.40;92.90;;;;;;6183191;23;20028;-85
2020/12/30 11:30:35;;;;;;;19.20;14.52;;;5.40;92.90;;;;;;6159038;23;20009;-87
2020/12/30 11:33:30;;;;;;;20.58;15.68;;;5.40;92.90;;;;;;6160650;23;20016;-85
2020/12/30 11:36:05;;;;;;;19.45;15.40;;;5.50;92.90;;;;;;6182651;23;20084;-87
2020/12/30 11:39:04;;;;;;;;;;;;;;;;;;;;;
2020/12/30 11:41:47;;;;;;;28.77;18.85;;;5.50;92.90;;;;;;6185694;23;20068;-86
2020/12/30 11:44:59;;;;;;;;;;;;;;;;;;;;;
2020/12/30 11:47:27;;;;;;;20.00;14.77;;;5.50;92.80;;;;;;6185059;23;20104;-86
2020/12/30 11:49:58;;;;;;;22.02;14.70;;;5.50;92.80;;;;;;6158632;23;20044;-86
2020/12/30 11:52:51;;;;;;;17.17;14.05;;;5.50;92.80;;;;;;6184276;23;20327;-86
2020/12/30 11:55:32;;;;;;;19.73;14.45;;;5.50;92.80;;;;;;6182099;23;20489;-86
2020/12/30 11:58:48;;;;;;;;;;;;;;;;;;;;;
2020/12/30 12:01:22;;;;;;;17.25;12.93;;;5.60;92.80;;;;;;6184189;23;20545;-89
2020/12/30 12:04:00;;;;;;;;;;;;;;;;;;;;;
2020/12/30 12:06:49;;;;;;;18.95;13.25;;;5.60;92.80;;;;;;6185419;23;20084;-87
2020/12/30 12:09:21;;;;;;;17.33;12.27;;;5.60;92.80;;;;;;6135205;23;20009;-87
2020/12/30 12:12:22;;;;;;;14.27;11.30;;;5.60;92.80;;;;;;6184984;23;20013;-88
2020/12/30 12:14:57;;;;;;;18.60;12.40;;;5.60;92.80;;;;;;6180450;23;20009;-87
2020/12/30 12:17:56;;;;;;;15.50;10.90;;;5.60;92.80;;;;;;6179715;23;20458;-87
2020/12/30 12:24:43;;;;;;;;;;;;;;;;;;;;;
2020/12/30 12:27:33;;;;;;;14.85;11.07;;;5.70;92.80;;;;;;6181969;23;20104;-86
2020/12/30 12:30:34;;;;;;;13.50;10.43;;;5.70;92.80;;;;;;6181199;23;20013;-87
2020/12/30 12:33:02;;;;;;;13.52;10.00;;;5.80;92.80;;;;;;6179425;23;20005;-87
2020/12/30 12:36:25;;;;;;;;;;;;;;;;;;;;;
2020/12/30 12:39:34;;;;;;;12.25;9.30;;;5.90;92.80;;;;;;6184238;23;20088;-87
2020/12/30 12:45:11;;;;;;;13.40;9.95;;;5.90;92.80;;;;;;6168286;23;20452;-87
2020/12/30 12:47:42;;;;;;;14.85;10.98;;;5.90;92.80;;;;;;6160148;23;20458;-86
2020/12/30 12:50:38;;;;;;;;;;;;;;;;;;;;;
2020/12/30 12:53:09;;;;;;;16.98;11.95;;;6.00;92.70;;;;;;6184399;23;20382;-87
2020/12/30 12:58:48;;;;;;;14.77;11.13;;;6.00;92.70;;;;;;6103236;23;20045;-86
2020/12/30 13:01:16;;;;;;;14.25;11.23;;;6.00;92.80;;;;;;6180407;23;20355;-87
2020/12/30 13:04:28;;;;;;;14.02;11.60;;;6.10;92.70;;;;;;6181977;23;20021;-88
2020/12/30 13:10:25;;;;;;;;;;;;;;;;;;;;;
2020/12/30 13:13:16;;;;;;;14.90;11.85;;;6.10;92.70;;;;;;6182959;23;20092;-85
2020/12/30 13:16:01;;;;;;;17.35;12.52;;;6.10;92.80;;;;;;6162864;23;20009;-86
2020/12/30 13:19:17;;;;;;;;;;;;;;;;;;;;;
2020/12/30 13:28:12;;;;;;;21.88;13.10;;;6.10;92.70;;;;;;6182108;23;20009;-86
2020/12/30 13:30:50;;;;;;;;;;;;;;;;;;;;;
2020/12/30 13:33:38;;;;;;;17.42;12.27;;;6.10;92.70;;;;;;6181969;23;20372;-85
2020/12/30 13:36:55;;;;;;;15.55;12.05;;;6.10;92.70;;;;;;6161045;23;20446;-85
2020/12/30 13:39:51;;;;;;;;;;;;;;;;;;;;;
2020/12/30 13:43:11;;;;;;;;;;;;;;;;;;;;;
2020/12/30 13:49:26;;;;;;;;;;;;;;;;;;;;;
2020/12/30 13:55:24;;;;;;;18.02;11.10;;;6.20;92.80;;;;;;6161557;23;20016;-85
2020/12/30 13:58:05;;;;;;;;;;;;;;;;;;;;;
2020/12/30 14:01:21;;;;;;;12.10;8.73;;;6.20;92.90;;;;;;6181510;23;20092;-86
2020/12/30 14:03:57;;;;;;;12.65;8.07;;;6.20;92.90;;;;;;6167375;23;20028;-87
2020/12/30 14:06:35;;;;;;;;;;;;;;;;;;;;;
2020/12/30 14:09:24;;;;;;;11.00;7.50;;;6.30;92.90;;;;;;6179464;23;20084;-86
2020/12/30 14:12:14;;;;;;;11.35;7.78;;;6.30;92.90;;;;;;6179372;23;20009;-86
2020/12/30 14:15:00;;;;;;;9.73;6.70;;;6.30;92.90;;;;;;6182603;23;20108;-85
2020/12/30 14:21:16;;;;;;;9.40;6.25;;;6.30;92.90;;;;;;6160075;23;20017;-87
2020/12/30 14:26:59;;;;;;;6.60;5.47;;;6.30;92.90;;;;;;6182619;23;20152;-85
2020/12/30 14:30:01;;;;;;;11.23;7.00;;;6.30;92.80;;;;;;6183341;23;20005;-86
2020/12/30 14:35:53;;;;;;;8.80;6.25;;;6.30;92.90;;;;;;6182252;23;19904;-88
2020/12/30 14:38:37;;;;;;;7.97;5.70;;;6.20;92.80;;;;;;6181961;23;20005;-87
2020/12/30 14:41:13;;;;;;;8.73;4.75;;;6.20;92.90;;;;;;6181725;23;20055;-86
2020/12/30 14:47:23;;;;;;;9.07;5.07;;;6.20;92.90;;;;;;6138161;23;20336;-86
2020/12/30 14:50:36;;;;;;;8.95;4.82;;;6.20;92.90;;;;;;6183015;23;20005;-86
2020/12/30 14:56:36;;;;;;;7.18;4.97;;;6.20;92.90;;;;;;6183726;23;20020;-88
2020/12/30 14:59:53;;;;;;;;;;;;;;;;;;;;;
2020/12/30 15:06:06;;;;;;;1.75;1.35;;;6.10;92.80;;;;;;6148722;23;20052;-84
2020/12/30 15:08:45;;;;;;;1.38;1.20;;;6.00;92.70;;;;;;6159471;23;20013;-84
2020/12/30 15:11:41;;;;;;;2.13;1.02;;;5.90;92.60;;;;;;6183326;23;20031;-85
2020/12/30 15:14:07;;;;;;;1.88;1.20;;;5.90;92.60;;;;;;6162346;23;20016;-86
2020/12/30 15:16:35;;;;;;;1.33;0.90;;;5.80;92.50;;;;;;6182137;23;20005;-84
2020/12/30 15:19:44;;;;;;;;;;;;;;;;;;;;;
2020/12/30 15:22:30;;;;;;;3.80;1.17;;;5.80;92.60;;;;;;6134566;23;20087;-86
2020/12/30 15:28:17;;;;;;;;;;;;;;;;;;;;;
2020/12/30 15:31:23;;;;;;;3.60;2.03;;;5.80;92.60;;;;;;6162129;23;20080;-86
2020/12/30 15:33:58;;;;;;;2.53;1.80;;;5.80;92.60;;;;;;6040709;23;20006;-86
2020/12/30 15:36:40;;;;;;;5.63;1.60;;;5.70;92.60;;;;;;6156254;23;20063;-85
2020/12/30 15:39:36;;;;;;;4.15;1.92;;;5.70;92.60;;;;;;6159021;23;20455;-85
2020/12/30 15:42:14;;;;;;;5.43;2.25;;;5.70;92.60;;;;;;6167070;23;20040;-86
2020/12/30 15:45:03;;;;;;;4.22;2.40;;;5.70;92.60;;;;;;6181455;23;20432;-87
2020/12/30 15:47:55;;;;;;;5.47;2.03;;;5.70;92.60;;;;;;6124231;23;20327;-86
2020/12/30 15:50:29;;;;;;;4.15;1.73;;;5.70;92.60;;;;;;6168545;23;20105;-85
2020/12/30 15:53:25;;;;;;;4.32;2.10;;;5.70;92.60;;;;;;6161139;23;20427;-85
2020/12/30 15:56:03;;;;;;;3.65;1.80;;;5.60;92.50;;;;;;6161295;23;20091;-86
2020/12/30 15:58:29;;;;;;;3.55;1.67;;;5.60;92.50;;;;;;6180924;23;20012;-85
2020/12/30 16:00:58;;;;;;;3.15;1.70;;;5.60;92.50;;;;;;6180895;23;20005;-86
2020/12/30 16:07:44;;;;;;;;;;;;;;;;;;;;;
2020/12/30 16:10:16;;;;;;;4.93;2.33;;;5.60;92.50;;;;;;6107562;23;20081;-85
2020/12/30 16:13:11;;;;;;;;;;;;;;;;;;;;;
2020/12/30 16:16:20;;;;;;;;;;;;;;;;;;;;;
2020/12/30 16:18:51;;;;;;;5.88;2.25;;;5.60;92.60;;;;;;6181827;23;20092;-86
2020/12/30 16:21:34;;;;;;;4.90;2.00;;;5.60;92.50;;;;;;6182741;23;20009;-86
2020/12/30 16:27:17;;;;;;;;;;;;;;;;;;;;;
2020/12/30 16:29:48;;;;;;;4.70;2.67;;;5.70;92.60;;;;;;6181660;23;20514;-88
2020/12/30 16:32:24;;;;;;;6.90;3.13;;;5.60;92.60;;;;;;6180470;23;20075;-86
2020/12/30 16:35:02;;;;;;;5.78;2.97;;;5.70;92.70;;;;;;6180356;23;20424;-85
2020/12/30 16:37:42;;;;;;;5.00;2.72;;;5.70;92.60;;;;;;6154804;23;20009;-87
2020/12/30 16:40:53;;;;;;;5.50;2.85;;;5.60;92.60;;;;;;6180221;23;20009;-87
2020/12/30 16:43:55;;;;;;;3.90;2.57;;;5.70;92.60;;;;;;6181952;23;20001;-87
2020/12/30 16:46:23;;;;;;;9.48;5.45;;;5.60;92.60;;;;;;6180688;23;20251;-84
2020/12/30 16:51:45;;;;;;;7.68;4.15;;;5.60;92.60;;;;;;6160570;23;20020;-85
2020/12/30 16:54:15;;;;;;;5.18;3.25;;;5.60;92.60;;;;;;6157896;23;20321;-85
2020/12/30 16:57:01;;;;;;;4.50;2.72;;;5.50;92.60;;;;;;6181471;23;20005;-85